createdAt,value
2022-12-18T00:02:40.250Z,15.63
2022-12-18T00:05:51.519Z,14.05
2022-12-18T00:08:53.287Z,12.68
2022-12-18T00:11:54.898Z,13.67
2022-12-18T00:14:56.470Z,15.00
2022-12-18T00:17:58.042Z,15.18
2022-12-18T00:21:01.456Z,14.07
2022-12-18T00:24:03.080Z,14.57
2022-12-18T00:27:04.685Z,12.23
2022-12-18T00:30:06.690Z,13.50
2022-12-18T00:33:08.271Z,14.07
2022-12-18T00:36:16.826Z,14.60
2022-12-18T00:39:18.938Z,14.32
2022-12-18T00:42:39.112Z,13.13
2022-12-18T00:45:40.780Z,12.85
2022-12-18T00:48:42.699Z,13.65
2022-12-18T00:51:44.695Z,13.60
2022-12-18T00:54:46.322Z,13.52
2022-12-18T00:57:47.987Z,13.73
2022-12-18T01:00:49.627Z,12.77
2022-12-18T01:03:51.701Z,14.37
2022-12-18T01:06:53.285Z,14.07
2022-12-18T01:09:54.883Z,13.60
2022-12-18T01:12:56.469Z,12.87
2022-12-18T01:15:58.123Z,13.27
2022-12-18T01:18:59.748Z,15.38
2022-12-18T01:22:01.344Z,13.25
2022-12-18T01:25:03.070Z,13.70
2022-12-18T01:28:04.837Z,14.25
2022-12-18T01:31:16.382Z,14.13
2022-12-18T01:34:17.986Z,14.07
2022-12-18T01:37:19.557Z,14.65
2022-12-18T01:40:21.139Z,14.25
2022-12-18T01:43:22.683Z,15.83
2022-12-18T01:46:24.625Z,14.15
2022-12-18T01:49:26.169Z,15.10
2022-12-18T01:52:29.482Z,13.65
2022-12-18T01:55:32.561Z,13.05
2022-12-18T01:58:56.147Z,14.93
2022-12-18T02:01:57.931Z,15.45
2022-12-18T02:04:59.595Z,13.70
2022-12-18T02:08:14.490Z,13.98
2022-12-18T02:11:31.266Z,15.23
2022-12-18T02:14:44.033Z,15.63
2022-12-18T02:18:10.098Z,14.98
2022-12-18T02:21:30.006Z,15.50
2022-12-18T02:24:40.975Z,15.02
2022-12-18T02:27:42.740Z,15.25
2022-12-18T02:30:45.510Z,15.25
2022-12-18T02:33:47.097Z,14.73
2022-12-18T02:36:48.659Z,15.43
2022-12-18T02:39:50.480Z,16.58
2022-12-18T02:42:52.134Z,15.02
2022-12-18T02:45:55.525Z,15.87
2022-12-18T02:49:02.760Z,15.15
2022-12-18T02:52:18.387Z,15.32
2022-12-18T02:55:35.165Z,15.07
2022-12-18T02:58:54.621Z,15.02
2022-12-18T03:02:03.080Z,16.38
2022-12-18T03:05:20.592Z,16.48
2022-12-18T03:08:27.260Z,14.73
2022-12-18T03:11:48.439Z,14.65
2022-12-18T03:15:17.784Z,14.60
2022-12-18T03:18:31.865Z,14.93
2022-12-18T03:21:38.278Z,13.98
2022-12-18T03:24:40.627Z,15.18
2022-12-18T03:27:45.852Z,14.45
2022-12-18T03:30:51.996Z,15.75
2022-12-18T03:33:54.620Z,14.30
2022-12-18T03:36:56.976Z,14.65
2022-12-18T03:39:58.572Z,14.70
2022-12-18T03:43:07.231Z,15.15
2022-12-18T03:46:43.896Z,13.63
2022-12-18T03:49:58.970Z,14.43
2022-12-18T03:53:01.608Z,14.20
2022-12-18T03:56:03.794Z,15.50
2022-12-18T03:59:05.452Z,16.20
2022-12-18T04:02:08.005Z,15.65
2022-12-18T04:05:09.743Z,13.60
2022-12-18T04:08:11.316Z,14.65
2022-12-18T04:11:12.894Z,13.93
2022-12-18T04:14:17.567Z,15.68
2022-12-18T04:17:23.585Z,15.52
2022-12-18T04:20:25.206Z,15.50
2022-12-18T04:23:26.792Z,15.02
2022-12-18T04:26:28.350Z,15.45
2022-12-18T04:29:30.003Z,16.83
2022-12-18T04:32:31.942Z,14.75
2022-12-18T04:35:33.531Z,13.68
2022-12-18T04:38:35.797Z,15.35
2022-12-18T04:41:37.321Z,15.07
2022-12-18T04:44:38.920Z,15.07
2022-12-18T04:47:43.611Z,15.18
2022-12-18T04:50:45.208Z,16.17
2022-12-18T04:53:46.822Z,16.02
2022-12-18T04:56:48.448Z,16.23
2022-12-18T04:59:50.045Z,15.68
2022-12-18T05:02:51.765Z,15.80
2022-12-18T05:05:53.451Z,15.48
2022-12-18T05:08:55.000Z,15.30
2022-12-18T05:11:56.644Z,14.57
2022-12-18T05:14:58.234Z,14.45
2022-12-18T05:17:59.961Z,14.55
2022-12-18T05:21:01.931Z,14.10
2022-12-18T05:24:03.641Z,14.15
2022-12-18T05:27:05.249Z,16.15
2022-12-18T05:30:07.549Z,15.63
2022-12-18T05:33:09.209Z,14.73
2022-12-18T05:36:11.174Z,14.43
2022-12-18T05:39:12.758Z,14.85
2022-12-18T05:42:14.355Z,15.33
2022-12-18T05:45:15.951Z,15.10
2022-12-18T05:48:20.900Z,13.75
2022-12-18T05:51:23.121Z,16.93
2022-12-18T05:54:24.715Z,15.38
2022-12-18T05:57:26.300Z,15.15
2022-12-18T06:00:27.917Z,13.70
2022-12-18T06:03:33.912Z,13.75
2022-12-18T06:06:35.763Z,14.32
2022-12-18T06:09:37.358Z,14.88
2022-12-18T06:12:38.953Z,13.90
2022-12-18T06:15:40.667Z,15.02
2022-12-18T06:18:45.460Z,14.57
2022-12-18T06:21:47.437Z,15.53
2022-12-18T06:24:48.987Z,13.93
2022-12-18T06:27:50.578Z,15.40
2022-12-18T06:30:52.198Z,14.20
2022-12-18T06:33:56.777Z,14.88
2022-12-18T06:36:58.370Z,15.55
2022-12-18T06:40:00.177Z,14.38
2022-12-18T06:43:01.767Z,14.70
2022-12-18T06:46:03.984Z,15.23
2022-12-18T06:49:09.937Z,15.75
2022-12-18T06:52:11.479Z,14.17
2022-12-18T06:55:13.126Z,14.65
2022-12-18T06:58:14.875Z,13.95
2022-12-18T07:01:16.596Z,14.65
2022-12-18T07:04:18.253Z,13.98
2022-12-18T07:07:19.856Z,15.10
2022-12-18T07:10:21.452Z,14.48
2022-12-18T07:13:23.198Z,15.60
2022-12-18T07:16:26.051Z,14.85
2022-12-18T07:19:30.872Z,15.18
2022-12-18T07:22:32.707Z,16.43
2022-12-18T07:25:37.373Z,15.18
2022-12-18T07:28:39.539Z,15.80
2022-12-18T07:31:41.450Z,20.13
2022-12-18T07:34:43.103Z,21.20
2022-12-18T07:37:44.724Z,21.60
2022-12-18T07:40:46.383Z,22.88
2022-12-18T07:43:48.088Z,23.53
2022-12-18T07:46:49.693Z,24.67
2022-12-18T07:49:51.362Z,23.50
2022-12-18T07:52:53.059Z,24.20
2022-12-18T07:56:25.576Z,23.20
2022-12-18T07:59:21.615Z,30.10
2022-12-18T08:02:23.357Z,23.00
2022-12-18T08:05:29.266Z,21.33
2022-12-18T08:08:30.988Z,20.55
2022-12-18T08:11:32.589Z,19.73
2022-12-18T08:14:34.160Z,21.07
2022-12-18T08:17:35.722Z,21.02
2022-12-18T08:20:37.268Z,21.83
2022-12-18T08:23:43.278Z,21.43
2022-12-18T08:27:00.915Z,20.42
2022-12-18T08:30:07.763Z,19.10
2022-12-18T08:33:09.368Z,18.67
2022-12-18T08:36:15.412Z,19.02
2022-12-18T08:39:17.077Z,17.60
2022-12-18T08:42:36.955Z,18.45
2022-12-18T08:45:38.552Z,17.97
2022-12-18T08:48:40.159Z,18.15
2022-12-18T08:51:41.782Z,16.38
2022-12-18T08:54:43.476Z,17.27
2022-12-18T08:57:48.725Z,17.92
2022-12-18T09:00:51.783Z,19.23
2022-12-18T09:03:53.468Z,18.17
2022-12-18T09:06:55.016Z,19.38
2022-12-18T09:09:56.675Z,19.30
2022-12-18T09:12:58.294Z,18.58
2022-12-18T09:15:59.883Z,18.87
2022-12-18T09:19:04.040Z,18.13
2022-12-18T09:22:09.299Z,15.93
2022-12-18T09:25:10.994Z,15.43
2022-12-18T09:28:14.231Z,13.93
2022-12-18T09:31:16.096Z,14.70
2022-12-18T09:34:17.799Z,15.43
2022-12-18T09:37:19.387Z,15.73
2022-12-18T09:40:23.229Z,15.90
2022-12-18T09:43:28.285Z,16.10
2022-12-18T09:46:31.857Z,16.43
2022-12-18T09:49:35.892Z,14.35
2022-12-18T09:52:40.657Z,14.73
2022-12-18T09:55:43.518Z,15.40
2022-12-18T09:59:01.981Z,13.68
2022-12-18T10:02:17.237Z,14.88
2022-12-18T10:05:24.672Z,15.88
2022-12-18T10:08:35.749Z,14.98
2022-12-18T10:12:14.952Z,16.02
2022-12-18T10:15:33.273Z,16.70
2022-12-18T10:19:13.279Z,15.13
2022-12-18T10:22:38.164Z,16.58
2022-12-18T10:25:56.410Z,15.88
2022-12-18T10:29:02.200Z,17.47
2022-12-18T10:32:08.235Z,16.58
2022-12-18T10:35:17.769Z,18.08
2022-12-18T10:38:20.180Z,19.20
2022-12-18T10:41:23.123Z,19.47
2022-12-18T10:44:25.386Z,20.02
2022-12-18T10:47:26.939Z,20.00
2022-12-18T10:51:08.762Z,19.83
2022-12-18T10:54:04.400Z,19.67
2022-12-18T10:57:41.809Z,20.52
2022-12-18T11:00:43.416Z,20.00
2022-12-18T11:04:06.026Z,20.73
2022-12-18T11:07:08.984Z,22.38
2022-12-18T11:10:19.106Z,20.20
2022-12-18T11:13:26.136Z,21.45
2022-12-18T11:16:28.215Z,24.67
2022-12-18T11:19:35.786Z,22.15
2022-12-18T11:22:37.625Z,22.88
2022-12-18T11:25:39.363Z,23.52
2022-12-18T11:28:43.439Z,22.25
2022-12-18T11:31:45.488Z,23.47
2022-12-18T11:34:54.664Z,22.20
2022-12-18T11:38:00.883Z,20.30
2022-12-18T11:41:22.161Z,20.77
2022-12-18T11:44:33.075Z,18.75
2022-12-18T11:48:13.043Z,19.52
2022-12-18T11:51:28.749Z,19.00
2022-12-18T11:54:30.369Z,18.63
2022-12-18T11:57:50.623Z,19.80
2022-12-18T12:01:24.117Z,18.75
2022-12-18T12:04:55.860Z,21.52
2022-12-18T12:08:09.345Z,19.15
2022-12-18T12:11:28.995Z,19.25
2022-12-18T12:14:43.603Z,18.65
2022-12-18T12:18:00.188Z,20.23
2022-12-18T12:21:01.826Z,19.60
2022-12-18T12:24:18.269Z,18.50
2022-12-18T12:27:49.372Z,19.70
2022-12-18T12:31:01.290Z,19.80
2022-12-18T12:34:24.710Z,18.90
2022-12-18T12:37:36.131Z,19.00
2022-12-18T12:40:53.480Z,18.20
2022-12-18T12:43:59.841Z,18.38
2022-12-18T12:47:04.404Z,18.55
2022-12-18T12:50:08.201Z,18.63
2022-12-18T12:53:10.837Z,18.53
2022-12-18T12:56:14.484Z,19.13
2022-12-18T12:59:37.976Z,19.05
2022-12-18T13:02:51.754Z,19.70
2022-12-18T13:05:56.055Z,17.60
2022-12-18T13:08:59.027Z,19.58
2022-12-18T13:12:24.160Z,20.42
2022-12-18T13:15:46.106Z,19.05
2022-12-18T13:18:52.557Z,18.98
2022-12-18T13:21:55.417Z,19.25
2022-12-18T13:24:57.059Z,20.33
2022-12-18T13:28:06.057Z,20.77
2022-12-18T13:31:08.200Z,22.05
2022-12-18T13:34:27.441Z,19.53
2022-12-18T13:37:33.268Z,18.13
2022-12-18T13:40:40.887Z,18.67
2022-12-18T13:43:53.622Z,17.42
2022-12-18T13:46:56.444Z,17.60
2022-12-18T13:49:58.220Z,17.23
2022-12-18T13:53:00.224Z,18.27
2022-12-18T13:56:01.811Z,18.07
2022-12-18T13:59:24.838Z,17.30
2022-12-18T14:02:30.280Z,17.55
2022-12-18T14:05:33.481Z,18.17
2022-12-18T14:08:43.044Z,17.00
2022-12-18T14:11:51.176Z,17.20
2022-12-18T14:14:55.085Z,18.75
2022-12-18T14:17:59.539Z,17.05
2022-12-18T14:21:02.624Z,18.27
2022-12-18T14:24:15.198Z,19.80
2022-12-18T14:27:23.899Z,18.40
2022-12-18T14:30:26.407Z,20.33
2022-12-18T14:33:28.434Z,17.65
2022-12-18T14:36:30.329Z,19.07
2022-12-18T14:39:31.938Z,18.75
2022-12-18T14:42:34.923Z,19.13
2022-12-18T14:45:44.391Z,17.83
2022-12-18T14:48:46.171Z,20.35
2022-12-18T14:51:55.079Z,19.60
2022-12-18T14:54:57.147Z,19.38
2022-12-18T14:58:01.905Z,17.80
2022-12-18T15:01:03.533Z,17.85
2022-12-18T15:04:06.811Z,18.05
2022-12-18T15:07:14.816Z,18.63
2022-12-18T15:10:17.587Z,19.13
2022-12-18T15:13:23.829Z,20.00
2022-12-18T15:16:25.537Z,19.05
2022-12-18T15:19:37.403Z,18.17
2022-12-18T15:22:39.018Z,19.85
2022-12-18T15:25:40.571Z,18.52
2022-12-18T15:28:59.582Z,21.80
2022-12-18T15:32:21.402Z,20.60
2022-12-18T15:35:26.385Z,19.13
2022-12-18T15:38:28.053Z,18.07
2022-12-18T15:41:31.455Z,18.65
2022-12-18T15:44:33.044Z,19.65
2022-12-18T15:47:34.628Z,20.10
2022-12-18T15:50:36.297Z,20.35
2022-12-18T15:53:39.389Z,20.23
2022-12-18T15:56:59.754Z,20.38
2022-12-18T16:00:01.355Z,18.40
2022-12-18T16:03:03.704Z,19.30
2022-12-18T16:06:05.528Z,19.48
2022-12-18T16:09:07.115Z,19.63
2022-12-18T16:12:19.735Z,18.83
2022-12-18T16:15:24.824Z,19.20
2022-12-18T16:18:26.727Z,19.20
2022-12-18T16:21:33.841Z,19.73
2022-12-18T16:24:37.252Z,19.60
2022-12-18T16:27:38.836Z,20.15
2022-12-18T16:30:41.343Z,20.70
2022-12-18T16:33:43.486Z,21.52
2022-12-18T16:36:45.493Z,21.15
2022-12-18T16:39:47.091Z,22.27
2022-12-18T16:42:48.647Z,23.30
2022-12-18T16:45:50.723Z,22.58
2022-12-18T16:48:53.510Z,22.27
2022-12-18T16:51:55.354Z,21.77
2022-12-18T16:54:57.063Z,20.90
2022-12-18T16:57:58.704Z,22.50
2022-12-18T17:01:00.505Z,20.73
2022-12-18T17:04:03.575Z,22.15
2022-12-18T17:07:05.269Z,19.85
2022-12-18T17:10:07.148Z,21.57
2022-12-18T17:13:08.728Z,22.40
2022-12-18T17:16:10.784Z,20.38
2022-12-18T17:19:17.002Z,22.23
2022-12-18T17:22:19.640Z,21.48
2022-12-18T17:25:21.225Z,23.08
2022-12-18T17:28:26.399Z,20.05
2022-12-18T17:31:29.643Z,21.93
2022-12-18T17:34:31.326Z,21.17
2022-12-18T17:37:32.913Z,21.20
2022-12-18T17:40:34.535Z,21.27
2022-12-18T17:43:36.285Z,21.35
2022-12-18T17:46:40.916Z,21.58
2022-12-18T17:49:42.577Z,22.98
2022-12-18T17:52:44.186Z,22.00
2022-12-18T17:55:54.525Z,22.20
2022-12-18T17:58:56.138Z,22.90
2022-12-18T18:01:57.919Z,20.67
2022-12-18T18:04:59.643Z,23.23
2022-12-18T18:08:02.928Z,22.45
2022-12-18T18:11:24.573Z,22.73
2022-12-18T18:14:27.520Z,20.15
2022-12-18T18:17:29.803Z,21.80
2022-12-18T18:20:32.523Z,21.52
2022-12-18T18:23:34.531Z,22.27
2022-12-18T18:26:36.562Z,22.90
2022-12-18T18:29:38.215Z,21.27
2022-12-18T18:32:40.404Z,19.57
2022-12-18T18:35:58.845Z,21.73
2022-12-18T18:39:00.877Z,21.13
2022-12-18T18:42:02.761Z,19.50
2022-12-18T18:45:04.769Z,19.55
2022-12-18T18:48:06.565Z,21.35
2022-12-18T18:51:11.007Z,21.48
2022-12-18T18:54:14.121Z,21.42
2022-12-18T18:57:20.662Z,20.23
2022-12-18T19:00:22.477Z,19.63
2022-12-18T19:03:25.276Z,19.60
2022-12-18T19:06:27.597Z,21.13
2022-12-18T19:09:30.060Z,21.40
2022-12-18T19:12:50.570Z,21.27
2022-12-18T19:15:56.142Z,20.38
2022-12-18T19:19:01.710Z,19.05
2022-12-18T19:22:09.573Z,20.52
2022-12-18T19:25:11.160Z,18.95
2022-12-18T19:28:22.302Z,19.60
2022-12-18T19:31:33.341Z,19.67
2022-12-18T19:34:37.064Z,19.23
2022-12-18T19:37:39.292Z,19.35
2022-12-18T19:40:41.470Z,17.95
2022-12-18T19:43:43.301Z,18.70
2022-12-18T19:46:46.256Z,19.30
2022-12-18T19:49:47.939Z,17.55
2022-12-18T19:52:49.635Z,17.98
2022-12-18T19:55:51.275Z,17.17
2022-12-18T19:58:53.343Z,19.17
2022-12-18T20:02:02.897Z,22.27
2022-12-18T20:05:06.145Z,20.67
2022-12-18T20:08:09.689Z,21.95
2022-12-18T20:11:12.165Z,23.55
2022-12-18T20:14:14.658Z,23.10
2022-12-18T20:17:23.221Z,24.00
2022-12-18T20:20:24.974Z,23.35
2022-12-18T20:23:26.623Z,23.45
2022-12-18T20:26:28.280Z,22.10
2022-12-18T20:29:30.600Z,24.75
2022-12-18T20:32:37.268Z,24.13
2022-12-18T20:35:38.982Z,23.67
2022-12-18T20:38:41.132Z,24.48
2022-12-18T20:41:44.324Z,23.38
2022-12-18T20:44:45.904Z,23.17
2022-12-18T20:47:50.421Z,21.13
2022-12-18T20:51:03.819Z,22.17
2022-12-18T20:54:10.327Z,20.67
2022-12-18T20:57:13.298Z,23.17
2022-12-18T21:00:16.496Z,21.05
2022-12-18T21:03:25.279Z,20.40
2022-12-18T21:06:26.919Z,19.07
2022-12-18T21:09:37.447Z,18.38
2022-12-18T21:12:57.591Z,19.48
2022-12-18T21:16:03.379Z,21.13
2022-12-18T21:19:05.975Z,19.92
2022-12-18T21:22:07.784Z,19.63
2022-12-18T21:25:09.952Z,19.75
2022-12-18T21:28:11.567Z,20.40
2022-12-18T21:31:13.423Z,19.63
2022-12-18T21:34:26.655Z,18.95
2022-12-18T21:37:28.253Z,19.27
2022-12-18T21:40:29.802Z,18.63
2022-12-18T21:43:49.908Z,19.25
2022-12-18T21:46:57.442Z,18.07
2022-12-18T21:50:01.564Z,19.55
2022-12-18T21:53:03.157Z,19.38
2022-12-18T21:56:04.919Z,18.98
2022-12-18T21:59:06.520Z,18.08
2022-12-18T22:02:14.028Z,18.20
2022-12-18T22:05:15.915Z,17.48
2022-12-18T22:08:17.668Z,19.20
2022-12-18T22:11:19.278Z,18.13
2022-12-18T22:14:23.523Z,18.40
2022-12-18T22:17:25.125Z,18.10
2022-12-18T22:20:27.184Z,19.33
2022-12-18T22:23:28.887Z,17.80
2022-12-18T22:26:35.135Z,17.55
2022-12-18T22:29:58.023Z,19.00
2022-12-18T22:32:59.673Z,19.92
2022-12-18T22:36:06.682Z,19.30
2022-12-18T22:39:11.623Z,19.13
2022-12-18T22:42:13.189Z,19.13
2022-12-18T22:45:15.462Z,18.38
2022-12-18T22:48:17.117Z,20.03
2022-12-18T22:51:19.000Z,20.02
2022-12-18T22:54:21.211Z,20.75
2022-12-18T22:57:23.152Z,20.17
2022-12-18T23:00:24.895Z,21.02
2022-12-18T23:03:26.590Z,20.33
2022-12-18T23:06:28.244Z,20.83
2022-12-18T23:09:29.835Z,21.47
2022-12-18T23:12:31.393Z,22.13
2022-12-18T23:15:34.447Z,20.52
2022-12-18T23:18:36.171Z,22.40
2022-12-18T23:21:37.885Z,20.95
2022-12-18T23:24:39.552Z,21.75
2022-12-18T23:27:41.123Z,22.08
2022-12-18T23:30:42.703Z,21.10
2022-12-18T23:33:45.110Z,22.30
2022-12-18T23:36:48.439Z,22.33
2022-12-18T23:39:51.584Z,21.23
2022-12-18T23:42:53.190Z,22.58
2022-12-18T23:45:55.895Z,21.98
2022-12-18T23:49:02.549Z,22.97
2022-12-18T23:52:04.118Z,21.88
2022-12-18T23:55:06.334Z,24.45
2022-12-18T23:58:10.061Z,23.00
